Time;durP1;ratioP1;P1;durP2;ratioP2;P2;SDS_P1;SDS_P2;PMS_P1;PMS_P2;Temp;Humidity;BMP_temperature;BMP_pressure;BME280_temperature;BME280_humidity;BME280_pressure;Samples;Min_cycle;Max_cycle;Signal;HPM_P1;HPM_P2
2023/06/01 00:00:07;;;;;;;9.95;5.13;;;;;;;24.39;45.78;100410.66;5071034;28;20059;-65
2023/06/01 00:02:35;;;;;;;9.87;5.50;;;;;;;24.40;45.69;100404.16;5071053;28;20048;-66
2023/06/01 00:05:07;;;;;;;8.80;5.18;;;;;;;24.39;45.68;100412.53;5071145;28;20360;-66
2023/06/01 00:07:36;;;;;;;8.70;5.25;;;;;;;24.39;45.80;100407.09;5071212;28;20079;-65
2023/06/01 00:10:05;;;;;;;8.70;5.13;;;;;;;24.36;46.13;100402.84;5071000;28;20044;-65
2023/06/01 00:12:33;;;;;;;9.00;5.53;;;;;;;24.33;45.78;100397.75;5070883;28;20053;-66
2023/06/01 00:15:03;;;;;;;8.85;5.88;;;;;;;24.32;46.06;100390.59;5074863;28;20482;-65
2023/06/01 00:17:32;;;;;;;7.65;5.35;;;;;;;24.31;45.98;100397.06;5074984;28;20066;-65
2023/06/01 00:20:05;;;;;;;8.10;5.10;;;;;;;24.28;45.91;100397.38;5075171;28;20045;-66
2023/06/01 00:22:38;;;;;;;8.52;5.60;;;;;;;24.20;45.76;100394.69;5074990;28;20457;-66
2023/06/01 00:25:10;;;;;;;;;;;;;;;24.19;45.93;100390.28;5075295;28;20133;-66
2023/06/01 00:27:38;;;;;;;8.27;5.35;;;;;;;24.17;45.80;100393.19;5074671;28;19942;-67
2023/06/01 00:30:08;;;;;;;7.55;5.20;;;;;;;24.17;45.84;100397.78;5074609;28;20044;-66
2023/06/01 00:32:36;;;;;;;10.18;5.00;;;;;;;24.17;46.13;100390.47;5074580;28;20071;-67
2023/06/01 00:35:05;;;;;;;8.15;5.28;;;;;;;24.17;45.92;100393.19;5074670;28;20055;-66
2023/06/01 00:37:34;;;;;;;8.60;5.68;;;;;;;24.18;45.92;100394.03;5074572;28;20053;-67
2023/06/01 00:40:02;;;;;;;8.20;5.55;;;;;;;24.16;46.04;100394.22;5074528;28;20056;-66
2023/06/01 00:42:31;;;;;;;9.10;4.95;;;;;;;24.16;45.99;100396.09;5074370;28;20055;-66
2023/06/01 00:44:59;;;;;;;8.45;5.07;;;;;;;24.15;46.06;100394.41;5074597;28;20079;-66
2023/06/01 00:47:28;;;;;;;8.20;5.28;;;;;;;24.15;46.12;100388.94;5074552;28;20088;-66
2023/06/01 00:49:56;;;;;;;8.05;5.05;;;;;;;24.14;46.19;100382.66;5074274;28;20047;-66
2023/06/01 00:52:25;;;;;;;8.90;5.53;;;;;;;24.14;46.09;100387.25;5074313;28;20098;-66
2023/06/01 00:54:54;;;;;;;9.25;5.00;;;;;;;24.13;46.00;100391.00;5074140;28;20119;-66
2023/06/01 00:57:26;;;;;;;7.65;5.03;;;;;;;24.12;46.06;100390.13;5074086;28;20067;-66
2023/06/01 00:59:55;;;;;;;10.80;5.72;;;;;;;24.12;46.00;100389.28;5073871;28;20088;-66
2023/06/01 01:02:24;;;;;;;7.65;5.25;;;;;;;24.09;45.97;100385.03;5074009;28;20521;-66
2023/06/01 01:04:55;;;;;;;7.55;5.05;;;;;;;24.08;45.93;100385.22;5074089;28;20468;-66
2023/06/01 01:07:33;;;;;;;8.40;5.13;;;;;;;24.06;45.87;100385.41;5073958;28;20086;-66
2023/06/01 01:10:10;;;;;;;7.47;4.88;;;;;;;24.05;45.83;100388.31;5074025;28;20056;-66
2023/06/01 01:12:46;;;;;;;7.95;5.10;;;;;;;24.03;45.78;100380.31;5073694;28;20543;-66
2023/06/01 01:15:22;;;;;;;9.93;5.13;;;;;;;24.03;45.76;100384.88;5073743;28;20044;-66
2023/06/01 01:18:01;;;;;;;7.85;4.88;;;;;;;24.02;45.93;100383.19;5073583;28;20482;-67
2023/06/01 01:20:34;;;;;;;8.63;5.10;;;;;;;24.00;46.04;100380.63;5073940;28;20051;-66
2023/06/01 01:23:24;;;;;;;7.90;4.90;;;;;;;23.97;46.06;100381.84;5073901;28;20052;-65
2023/06/01 01:26:24;;;;;;;7.40;4.72;;;;;;;23.96;46.23;100380.16;5073279;28;20052;-66
2023/06/01 01:29:01;;;;;;;8.32;5.47;;;;;;;23.94;46.25;100376.75;5073313;28;20139;-66
2023/06/01 01:31:31;;;;;;;7.28;4.78;;;;;;;23.92;46.29;100383.38;5073800;28;20040;-66
2023/06/01 01:34:01;;;;;;;8.23;5.40;;;;;;;23.92;46.32;100377.94;5073596;28;20052;-66
2023/06/01 01:36:31;;;;;;;8.15;5.35;;;;;;;23.90;46.42;100375.41;5073417;28;20044;-66
2023/06/01 01:38:59;;;;;;;8.60;5.57;;;;;;;23.89;46.78;100373.69;5073178;28;20048;-65
2023/06/01 01:41:27;;;;;;;9.57;5.38;;;;;;;23.88;47.01;100372.00;5073617;28;20131;-64
2023/06/01 01:43:58;;;;;;;8.95;5.50;;;;;;;23.85;46.73;100372.38;5073298;28;20563;-66
2023/06/01 01:46:29;;;;;;;9.82;5.32;;;;;;;23.83;46.95;100379.00;5073373;28;20052;-66
2023/06/01 01:49:08;;;;;;;8.27;5.28;;;;;;;23.81;46.66;100379.16;5073300;28;20053;-65
2023/06/01 01:51:41;;;;;;;8.88;5.68;;;;;;;23.80;46.82;100377.47;5073205;28;20132;-65
2023/06/01 01:54:10;;;;;;;8.45;5.20;;;;;;;23.80;46.91;100387.53;5073112;28;20512;-65
2023/06/01 01:56:39;;;;;;;7.88;5.10;;;;;;;23.79;46.53;100383.94;5073236;28;20052;-65
2023/06/01 01:59:10;;;;;;;8.93;5.25;;;;;;;23.77;46.45;100382.44;5072869;28;20053;-65
2023/06/01 02:01:41;;;;;;;9.88;5.10;;;;;;;23.72;46.42;100382.94;5072980;28;20091;-65
2023/06/01 02:04:10;;;;;;;8.15;4.90;;;;;;;23.67;46.45;100377.19;5072780;28;20098;-65
2023/06/01 02:06:39;;;;;;;8.05;5.25;;;;;;;23.66;46.57;100372.75;5072957;28;20049;-65
2023/06/01 02:09:08;;;;;;;7.28;4.65;;;;;;;23.66;46.41;100373.59;5072667;28;20478;-65
2023/06/01 02:11:37;;;;;;;8.40;5.07;;;;;;;23.65;46.62;100366.47;5072891;28;20106;-66
2023/06/01 02:14:05;;;;;;;7.50;4.95;;;;;;;23.65;46.39;100374.63;5072627;28;20118;-65
2023/06/01 02:16:35;;;;;;;7.38;4.75;;;;;;;23.64;46.30;100369.34;5072585;28;20064;-65
2023/06/01 02:19:04;;;;;;;8.93;5.13;;;;;;;23.62;46.26;100369.53;5072935;28;20040;-65
2023/06/01 02:21:32;;;;;;;9.07;5.20;;;;;;;23.62;46.35;100368.66;5072714;28;20437;-66
2023/06/01 02:24:04;;;;;;;8.48;5.10;;;;;;;23.61;46.28;100358.81;5072748;28;20045;-65
2023/06/01 02:26:33;;;;;;;7.60;5.07;;;;;;;23.59;46.28;100350.81;5072704;28;20053;-66
2023/06/01 02:29:04;;;;;;;7.38;4.45;;;;;;;23.60;46.31;100357.09;5072438;28;20045;-65
2023/06/01 02:31:35;;;;;;;7.63;4.37;;;;;;;23.58;46.28;100353.69;5072362;28;20055;-65
2023/06/01 02:34:03;;;;;;;8.15;4.50;;;;;;;23.58;46.27;100353.69;5072587;28;20521;-65
2023/06/01 02:36:32;;;;;;;8.65;5.05;;;;;;;23.56;46.49;100358.47;5071706;28;20475;-64
2023/06/01 02:39:00;;;;;;;6.90;4.43;;;;;;;23.55;46.34;100354.03;5072200;28;20136;-65
2023/06/01 02:41:29;;;;;;;7.78;4.45;;;;;;;23.53;46.22;100351.47;5072163;28;20123;-65
2023/06/01 02:43:57;;;;;;;7.65;4.85;;;;;;;23.52;46.38;100349.78;5071966;28;20048;-64
2023/06/01 02:46:25;;;;;;;10.15;4.88;;;;;;;23.49;46.32;100350.13;5071997;28;20055;-65
2023/06/01 02:48:55;;;;;;;7.20;4.70;;;;;;;23.47;46.42;100349.47;5072136;28;20398;-65
2023/06/01 02:51:23;;;;;;;8.70;4.40;;;;;;;23.47;46.21;100348.63;5072039;28;20045;-65
2023/06/01 02:53:51;;;;;;;7.30;4.60;;;;;;;23.47;46.43;100346.75;5072097;28;20045;-65
2023/06/01 02:56:19;;;;;;;9.48;4.72;;;;;;;23.45;46.56;100350.63;5071705;28;20048;-65
2023/06/01 02:58:48;;;;;;;7.38;4.43;;;;;;;23.44;46.42;100352.50;5071396;28;20098;-65
2023/06/01 03:01:16;;;;;;;10.27;4.88;;;;;;;23.41;46.38;100352.84;5071867;28;20044;-65
2023/06/01 03:03:46;;;;;;;6.93;4.35;;;;;;;23.38;46.28;100359.50;5071938;28;20484;-65
2023/06/01 03:06:17;;;;;;;9.38;4.43;;;;;;;23.36;46.20;100355.25;5070301;28;20045;-64
2023/06/01 03:08:46;;;;;;;7.88;4.68;;;;;;;23.34;46.34;100363.56;5071605;28;20147;-65
2023/06/01 03:11:14;;;;;;;8.63;4.68;;;;;;;23.33;46.42;100359.16;5071801;28;20076;-65
2023/06/01 03:13:43;;;;;;;7.25;4.50;;;;;;;23.32;46.56;100353.91;5071390;28;20495;-65
2023/06/01 03:16:11;;;;;;;8.05;4.57;;;;;;;23.32;46.46;100359.34;5071690;28;20110;-65
2023/06/01 03:18:39;;;;;;;9.63;5.43;;;;;;;23.31;46.50;100349.47;5071440;28;20386;-66
2023/06/01 03:21:07;;;;;;;6.72;4.95;;;;;;;23.30;46.51;100351.34;5071439;28;20131;-66
2023/06/01 03:23:37;;;;;;;7.07;4.45;;;;;;;23.28;46.60;100347.97;5071458;28;20056;-65
2023/06/01 03:26:05;;;;;;;9.90;4.68;;;;;;;23.28;46.71;100353.41;5071661;28;20090;-65
2023/06/01 03:28:33;;;;;;;8.10;5.28;;;;;;;23.26;46.73;100354.56;5071601;28;20048;-65
2023/06/01 03:31:02;;;;;;;7.53;4.85;;;;;;;23.24;46.74;100356.63;5071439;28;20048;-66
2023/06/01 03:33:30;;;;;;;9.80;5.38;;;;;;;23.21;46.82;100355.09;5071373;28;20197;-65
2023/06/01 03:35:58;;;;;;;8.50;4.93;;;;;;;23.20;46.87;100345.25;5071383;28;20171;-65
2023/06/01 03:38:27;;;;;;;8.88;4.90;;;;;;;23.20;46.88;100350.69;5071104;28;20470;-65
2023/06/01 03:40:56;;;;;;;6.38;3.75;;;;;;;23.21;46.82;100352.38;5071355;28;20083;-65
2023/06/01 03:43:24;;;;;;;6.88;4.32;;;;;;;23.21;47.06;100346.09;5071410;28;20052;-65
2023/06/01 03:45:52;;;;;;;8.00;4.43;;;;;;;23.21;46.97;100351.53;5071322;28;20102;-65
2023/06/01 03:48:21;;;;;;;6.82;4.63;;;;;;;23.20;46.97;100345.25;5071165;28;20626;-65
2023/06/01 03:50:49;;;;;;;9.93;5.05;;;;;;;23.17;47.13;100348.31;5070940;28;20049;-64
2023/06/01 03:53:17;;;;;;;7.28;4.45;;;;;;;23.19;47.09;100342.69;5070919;28;20084;-65
2023/06/01 03:55:47;;;;;;;8.93;4.50;;;;;;;23.20;47.12;100341.66;5071215;28;20454;-64
2023/06/01 03:58:18;;;;;;;8.65;4.88;;;;;;;23.21;47.09;100343.38;5070921;28;20052;-64
2023/06/01 04:00:47;;;;;;;7.57;4.90;;;;;;;23.21;47.24;100346.09;5070777;28;20044;-65
2023/06/01 04:03:15;;;;;;;8.20;4.82;;;;;;;23.18;47.27;100347.28;5070679;28;20044;-65
2023/06/01 04:05:49;;;;;;;7.82;4.57;;;;;;;23.19;47.22;100340.81;5070972;28;20585;-65
2023/06/01 04:08:19;;;;;;;9.65;4.90;;;;;;;23.20;47.18;100349.84;5071109;28;20064;-65
2023/06/01 04:10:48;;;;;;;8.50;4.55;;;;;;;23.20;47.27;100341.66;5070929;28;20051;-65
2023/06/01 04:13:17;;;;;;;6.88;4.32;;;;;;;23.21;47.21;100355.09;5070745;28;20406;-65
2023/06/01 04:15:47;;;;;;;7.10;4.63;;;;;;;23.22;47.32;100351.34;5070661;28;20048;-65
2023/06/01 04:18:15;;;;;;;7.57;4.63;;;;;;;23.23;47.07;100353.06;5070837;28;20052;-65
2023/06/01 04:20:43;;;;;;;6.80;4.38;;;;;;;23.22;47.16;100348.63;5070835;28;20045;-65
2023/06/01 04:23:11;;;;;;;7.28;4.22;;;;;;;23.24;47.32;100352.03;5070955;28;20053;-66
2023/06/01 04:25:43;;;;;;;7.80;4.57;;;;;;;23.24;47.17;100349.31;5070755;28;20131;-66
2023/06/01 04:28:12;;;;;;;7.13;4.50;;;;;;;23.25;47.04;100350.16;5070683;28;20048;-65
2023/06/01 04:30:44;;;;;;;6.95;4.10;;;;;;;23.27;47.20;100348.13;5070855;28;20049;-65
2023/06/01 04:33:12;;;;;;;8.07;4.80;;;;;;;23.26;47.29;100350.00;5070706;28;20436;-66
2023/06/01 04:35:40;;;;;;;7.38;4.55;;;;;;;23.27;47.35;100357.16;5070712;28;20051;-66
2023/06/01 04:38:08;;;;;;;7.65;4.65;;;;;;;23.28;47.25;100353.41;5070539;28;20588;-65
2023/06/01 04:40:37;;;;;;;7.47;4.50;;;;;;;23.28;47.42;100350.69;5070550;28;20049;-65
2023/06/01 04:43:06;;;;;;;8.80;4.57;;;;;;;23.29;47.46;100351.53;5070666;28;20117;-65
2023/06/01 04:45:38;;;;;;;7.00;4.30;;;;;;;23.28;47.24;100358.84;5070768;28;20047;-65
2023/06/01 04:48:09;;;;;;;7.32;4.40;;;;;;;23.29;47.47;100359.69;5070535;28;20049;-64
2023/06/01 04:50:37;;;;;;;9.15;4.50;;;;;;;23.29;47.38;100359.69;5070603;28;20048;-65
2023/06/01 04:53:05;;;;;;;7.45;4.50;;;;;;;23.29;47.33;100359.69;5070429;28;20049;-64
2023/06/01 04:55:33;;;;;;;6.40;4.28;;;;;;;23.30;47.34;100366.81;5070386;28;20148;-65
2023/06/01 04:58:03;;;;;;;6.00;4.22;;;;;;;23.30;47.39;100364.97;5070279;28;20523;-65
2023/06/01 05:00:32;;;;;;;8.68;4.40;;;;;;;23.31;47.43;100363.94;5072986;28;20444;-65
2023/06/01 05:03:00;;;;;;;9.00;4.55;;;;;;;23.32;47.27;100357.47;5073610;28;20072;-65
2023/06/01 05:05:29;;;;;;;7.90;4.45;;;;;;;23.32;47.29;100360.19;5073537;28;20448;-65
2023/06/01 05:07:58;;;;;;;7.93;4.45;;;;;;;23.33;47.40;100353.72;5070926;28;20113;-65
2023/06/01 05:10:26;;;;;;;7.45;3.95;;;;;;;23.34;47.30;100360.84;5073035;28;20040;-65
2023/06/01 05:12:54;;;;;;;8.18;4.32;;;;;;;23.35;47.39;100357.09;5072794;28;20040;-66
2023/06/01 05:15:23;;;;;;;7.93;4.22;;;;;;;23.36;47.31;100358.84;5073075;28;20063;-66
2023/06/01 05:17:56;;;;;;;8.60;4.38;;;;;;;23.38;47.06;100359.50;5070260;28;20051;-66
2023/06/01 05:20:24;;;;;;;8.60;4.35;;;;;;;23.39;47.31;100361.22;5073508;28;20425;-66
2023/06/01 05:22:54;;;;;;;7.25;4.72;;;;;;;23.40;47.15;100362.91;5073329;28;20127;-65
2023/06/01 05:25:22;;;;;;;7.75;4.35;;;;;;;23.40;47.16;100362.06;5073437;28;20409;-65
2023/06/01 05:27:50;;;;;;;10.35;5.25;;;;;;;23.39;47.03;100366.66;5073554;28;20105;-63
2023/06/01 05:30:18;;;;;;;7.47;4.47;;;;;;;23.39;47.06;100365.81;5073253;28;20122;-65
2023/06/01 05:32:47;;;;;;;8.70;4.43;;;;;;;23.34;47.02;100360.84;5073019;28;20094;-65
2023/06/01 05:35:15;;;;;;;8.75;4.68;;;;;;;23.33;47.46;100361.03;5073095;28;20051;-64
2023/06/01 05:37:43;;;;;;;8.45;4.70;;;;;;;23.31;47.12;100361.22;5072065;28;20037;-65
2023/06/01 05:40:16;;;;;;;9.25;4.88;;;;;;;23.29;47.22;100354.25;5072694;28;20131;-65
2023/06/01 05:42:44;;;;;;;8.15;4.75;;;;;;;23.28;47.27;100364.28;5072823;28;20040;-64
2023/06/01 05:45:12;;;;;;;8.52;4.80;;;;;;;23.28;47.09;100360.72;5072536;28;20044;-64
2023/06/01 05:47:40;;;;;;;7.75;4.68;;;;;;;23.25;47.12;100355.59;5072824;28;20098;-64
2023/06/01 05:50:09;;;;;;;9.13;4.63;;;;;;;23.23;46.78;100353.06;5073389;28;20045;-65
2023/06/01 05:52:38;;;;;;;9.63;4.40;;;;;;;23.23;46.99;100355.78;5070722;28;20083;-65
2023/06/01 05:55:07;;;;;;;8.93;4.60;;;;;;;23.24;46.87;100357.47;5072724;28;20397;-63
2023/06/01 05:57:37;;;;;;;9.88;4.55;;;;;;;23.25;46.95;100364.59;5072217;28;20051;-65
2023/06/01 06:00:09;;;;;;;6.88;4.30;;;;;;;23.26;46.91;100360.88;5072179;28;20426;-64
2023/06/01 06:02:38;;;;;;;8.68;4.15;;;;;;;23.26;46.80;100360.88;5069698;28;20412;-65
2023/06/01 06:05:07;;;;;;;9.68;4.32;;;;;;;23.27;46.82;100356.31;5072105;28;20044;-64
2023/06/01 06:07:35;;;;;;;8.35;4.32;;;;;;;23.27;46.87;100362.59;5074966;28;20086;-65
2023/06/01 06:10:04;;;;;;;10.27;4.15;;;;;;;23.27;46.40;100362.59;5071565;28;20080;-65
2023/06/01 06:12:32;;;;;;;9.90;3.90;;;;;;;23.25;46.20;100361.88;5071393;28;20421;-64
2023/06/01 06:15:04;;;;;;;8.38;4.00;;;;;;;23.25;45.96;100367.31;5072033;28;20040;-64
2023/06/01 06:17:32;;;;;;;9.43;4.28;;;;;;;23.23;45.00;100360.38;5072473;28;20067;-64
2023/06/01 06:20:00;;;;;;;8.07;3.75;;;;;;;23.20;44.79;100363.44;5072268;28;20101;-67
2023/06/01 06:22:28;;;;;;;8.82;4.18;;;;;;;23.20;45.06;100361.56;5072416;28;20485;-65
2023/06/01 06:24:56;;;;;;;9.70;3.90;;;;;;;23.21;45.20;100363.25;5072485;28;20040;-66
2023/06/01 06:27:24;;;;;;;11.88;5.25;;;;;;;23.23;45.25;100369.38;5068416;28;20090;-65
2023/06/01 06:29:52;;;;;;;8.90;4.68;;;;;;;23.24;44.60;100360.19;5086306;28;20393;-65
2023/06/01 06:32:22;;;;;;;10.57;4.13;;;;;;;23.26;44.32;100360.00;5092203;28;20052;-70
2023/06/01 06:34:51;;;;;;;10.00;4.18;;;;;;;23.26;43.58;100352.72;5072616;28;20044;-65
2023/06/01 06:37:19;;;;;;;7.95;4.05;;;;;;;23.23;42.54;100354.91;5072240;28;20055;-66
2023/06/01 06:39:47;;;;;;;10.85;4.10;;;;;;;23.17;41.67;100351.03;5072015;28;20438;-66
2023/06/01 06:42:16;;;;;;;11.52;4.43;;;;;;;23.13;41.70;100355.09;5071895;28;20041;-66
2023/06/01 06:44:44;;;;;;;12.50;4.70;;;;;;;23.15;42.20;100350.31;5071465;28;20063;-65
2023/06/01 06:47:15;;;;;;;13.98;4.30;;;;;;;23.17;42.58;100353.75;5071754;28;20127;-65
2023/06/01 06:49:45;;;;;;;10.95;4.22;;;;;;;23.23;43.02;100353.06;5071654;28;20059;-66
2023/06/01 06:52:13;;;;;;;12.73;4.90;;;;;;;23.27;42.99;100357.16;5071674;28;20238;-66
2023/06/01 06:54:41;;;;;;;10.25;4.05;;;;;;;23.24;41.32;100352.03;5071649;28;20580;-66
2023/06/01 06:57:10;;;;;;;9.45;4.13;;;;;;;23.24;41.46;100346.59;5071717;28;20532;-66
2023/06/01 06:59:38;;;;;;;10.88;4.28;;;;;;;23.26;41.94;100355.44;5071637;28;20055;-66
2023/06/01 07:02:07;;;;;;;7.70;3.72;;;;;;;23.26;41.31;100352.72;5071633;28;20474;-66
2023/06/01 07:04:35;;;;;;;8.98;3.70;;;;;;;23.26;41.58;100347.28;5071615;28;20401;-66
2023/06/01 07:07:05;;;;;;;9.07;3.92;;;;;;;23.26;40.93;100347.28;5071381;28;20068;-66
2023/06/01 07:09:34;;;;;;;6.55;3.22;;;;;;;23.15;39.10;100347.59;5071654;28;20404;-66
2023/06/01 07:12:02;;;;;;;10.15;3.40;;;;;;;23.09;39.10;100348.31;5071441;28;20054;-66
2023/06/01 07:14:30;;;;;;;8.18;3.53;;;;;;;23.02;39.40;100347.28;5071505;28;20055;-66
2023/06/01 07:16:58;;;;;;;9.70;3.55;;;;;;;23.01;39.98;100343.72;5071481;28;20049;-65
2023/06/01 07:19:32;;;;;;;8.43;3.50;;;;;;;23.01;40.14;100345.59;5071220;28;20143;-65
2023/06/01 07:22:01;;;;;;;8.85;3.65;;;;;;;23.04;40.42;100343.38;5070968;28;20048;-66
2023/06/01 07:24:30;;;;;;;6.80;3.58;;;;;;;23.07;40.85;100344.91;5071246;28;20053;-66
2023/06/01 07:26:59;;;;;;;9.38;3.65;;;;;;;23.07;40.90;100339.47;5071625;28;20044;-66
2023/06/01 07:29:27;;;;;;;7.47;3.80;;;;;;;23.12;41.85;100345.25;5071392;28;20048;-66
2023/06/01 07:31:56;;;;;;;7.05;3.58;;;;;;;23.19;42.49;100337.25;5071364;28;20048;-66
2023/06/01 07:34:24;;;;;;;7.90;3.63;;;;;;;23.19;40.77;100343.53;5071177;28;20490;-66
2023/06/01 07:36:53;;;;;;;9.40;3.50;;;;;;;23.19;40.63;100343.53;5071236;28;20382;-66
2023/06/01 07:39:33;;;;;;;8.27;3.75;;;;;;;23.21;40.32;100352.38;5071463;28;20091;-65
2023/06/01 07:42:01;;;;;;;7.95;3.50;;;;;;;23.18;39.67;100344.56;5071480;28;20045;-66
2023/06/01 07:44:29;;;;;;;8.07;3.17;;;;;;;23.15;39.60;100339.44;5071782;28;20143;-66
2023/06/01 07:46:57;;;;;;;6.20;2.90;;;;;;;23.15;39.93;100336.72;5071219;28;20167;-66
2023/06/01 07:49:26;;;;;;;7.40;3.53;;;;;;;23.21;41.48;100336.06;5071177;28;20143;-66
2023/06/01 07:51:55;;;;;;;6.95;3.67;;;;;;;23.27;42.13;100335.38;5071218;28;20106;-66
2023/06/01 07:54:23;;;;;;;6.63;3.25;;;;;;;23.32;41.83;100330.25;5071319;28;20132;-66
2023/06/01 07:56:53;;;;;;;8.82;3.42;;;;;;;23.34;41.64;100339.09;5071144;28;20520;-66
2023/06/01 07:59:22;;;;;;;6.22;3.30;;;;;;;23.38;41.65;100337.72;5070860;28;20086;-65
2023/06/01 08:01:51;;;;;;;6.13;3.33;;;;;;;23.42;41.67;100339.06;5071349;28;20049;-65
2023/06/01 08:04:22;;;;;;;7.43;3.03;;;;;;;23.46;41.49;100336.03;5071211;28;20098;-65
2023/06/01 08:06:53;;;;;;;7.70;3.17;;;;;;;23.47;41.37;100329.56;5071290;28;20067;-65
2023/06/01 08:09:21;;;;;;;6.18;3.05;;;;;;;23.51;41.32;100330.91;5070952;28;20056;-65
2023/06/01 08:11:49;;;;;;;7.05;3.10;;;;;;;23.52;41.09;100327.16;5070402;28;20049;-66
2023/06/01 08:14:19;;;;;;;6.13;3.08;;;;;;;23.50;39.99;100324.59;5070756;28;20087;-66
2023/06/01 08:16:47;;;;;;;7.47;3.30;;;;;;;23.50;40.10;100319.16;5070834;28;20044;-66
2023/06/01 08:19:16;;;;;;;7.53;3.00;;;;;;;23.53;40.61;100316.06;5070637;28;20048;-66
2023/06/01 08:21:45;;;;;;;7.18;2.92;;;;;;;23.55;40.68;100319.50;5070388;28;20052;-66
2023/06/01 08:24:15;;;;;;;7.75;3.08;;;;;;;23.59;40.65;100320.03;5070670;28;20051;-66
2023/06/01 08:26:43;;;;;;;7.15;3.50;;;;;;;23.59;40.43;100306.41;5070703;28;20135;-66
2023/06/01 08:29:11;;;;;;;7.65;3.20;;;;;;;23.60;39.96;100314.41;5071026;28;20078;-66
2023/06/01 08:31:41;;;;;;;7.38;3.03;;;;;;;23.63;40.51;100311.31;5070901;28;20521;-67
2023/06/01 08:34:09;;;;;;;7.15;3.05;;;;;;;23.67;40.72;100312.69;5071827;28;20048;-67
2023/06/01 08:36:37;;;;;;;8.00;3.78;;;;;;;23.64;39.21;100314.88;5074626;28;20094;-67
2023/06/01 08:39:21;;;;;;;8.30;3.47;;;;;;;23.64;39.82;100314.88;5074500;28;20044;-67
2023/06/01 08:41:59;;;;;;;7.10;3.40;;;;;;;23.63;39.39;100318.63;5074306;28;20547;-66
2023/06/01 08:44:29;;;;;;;7.47;3.20;;;;;;;23.62;39.33;100314.22;5074506;28;20136;-65
2023/06/01 08:46:58;;;;;;;5.95;3.30;;;;;;;23.63;38.74;100313.19;5074284;28;20317;-66
2023/06/01 08:49:30;;;;;;;7.80;3.40;;;;;;;23.62;38.58;100316.94;5074088;28;20047;-65
2023/06/01 08:52:02;;;;;;;9.02;3.80;;;;;;;23.62;38.54;100306.91;5074181;28;20516;-65
2023/06/01 08:54:31;;;;;;;11.48;3.30;;;;;;;23.65;38.44;100311.16;5074425;28;20129;-65
2023/06/01 08:57:02;;;;;;;9.80;3.70;;;;;;;23.66;39.46;100305.53;5074351;28;20411;-65
2023/06/01 08:59:30;;;;;;;8.80;3.60;;;;;;;23.69;39.36;100307.91;5074255;28;20500;-65
2023/06/01 09:02:00;;;;;;;6.78;3.60;;;;;;;23.70;39.17;100304.16;5074598;28;20049;-65
2023/06/01 09:04:30;;;;;;;6.65;3.50;;;;;;;23.73;39.44;100302.94;5074090;28;20135;-66
2023/06/01 09:06:58;;;;;;;6.95;3.30;;;;;;;23.75;39.80;100298.19;5074321;28;20049;-65
2023/06/01 09:09:26;;;;;;;5.65;3.10;;;;;;;23.80;40.46;100301.22;5074056;28;20048;-65
2023/06/01 09:12:17;;;;;;;6.63;3.47;;;;;;;23.84;40.59;100294.41;5073938;28;20098;-65
2023/06/01 09:14:45;;;;;;;8.90;3.55;;;;;;;23.88;40.34;100293.00;5073707;28;20045;-64
2023/06/01 09:17:16;;;;;;;8.77;3.92;;;;;;;23.90;39.68;100290.09;5073709;28;20047;-66
2023/06/01 09:19:45;;;;;;;8.85;3.25;;;;;;;23.90;39.38;100282.78;5073732;28;20102;-66
2023/06/01 09:22:14;;;;;;;9.82;3.42;;;;;;;23.91;38.58;100284.47;5073562;28;20091;-66
2023/06/01 09:24:56;;;;;;;10.48;3.65;;;;;;;23.92;37.98;100280.72;5073789;28;20056;-66
2023/06/01 09:27:25;;;;;;;8.30;3.50;;;;;;;23.93;37.34;100281.56;5073573;28;20555;-65
2023/06/01 09:29:55;;;;;;;11.05;3.58;;;;;;;23.93;37.22;100277.00;5073608;28;20040;-65
2023/06/01 09:32:24;;;;;;;8.90;4.03;;;;;;;23.95;37.53;100274.94;5073748;28;20139;-65
2023/06/01 09:34:54;;;;;;;9.80;4.07;;;;;;;23.97;36.88;100282.94;5073756;28;20397;-64
2023/06/01 09:37:28;;;;;;;11.15;3.63;;;;;;;23.97;37.24;100286.50;5073642;28;20086;-65
2023/06/01 09:39:56;;;;;;;8.30;3.28;;;;;;;23.99;38.26;100284.44;5073494;28;20132;-65
2023/06/01 09:42:32;;;;;;;6.28;3.60;;;;;;;24.01;37.19;100284.25;5073269;28;20426;-65
2023/06/01 09:45:16;;;;;;;9.27;3.50;;;;;;;24.02;37.46;100279.66;5073108;28;20059;-65
2023/06/01 09:47:46;;;;;;;8.25;3.97;;;;;;;24.02;37.39;100276.94;5073188;28;20091;-65
2023/06/01 09:50:35;;;;;;;6.70;3.35;;;;;;;24.04;37.62;100278.47;5073187;28;20169;-65
2023/06/01 09:53:06;;;;;;;9.27;3.80;;;;;;;24.06;37.20;100281.00;5073257;28;20071;-65
2023/06/01 09:55:34;;;;;;;11.38;4.15;;;;;;;24.08;37.38;100287.97;5073161;28;20052;-65
2023/06/01 09:58:19;;;;;;;10.25;3.85;;;;;;;24.09;37.01;100283.38;5073054;28;20135;-65
2023/06/01 10:00:48;;;;;;;6.72;3.65;;;;;;;24.10;37.35;100275.00;5072799;28;20044;-65
2023/06/01 10:03:20;;;;;;;7.63;4.15;;;;;;;24.14;37.57;100272.81;5073015;28;20050;-65
2023/06/01 10:05:49;;;;;;;8.43;4.03;;;;;;;24.16;37.53;100276.19;5073072;28;20161;-67
2023/06/01 10:08:19;;;;;;;8.38;3.90;;;;;;;24.17;37.38;100276.00;5072804;28;20493;-65
2023/06/01 10:10:50;;;;;;;8.10;4.00;;;;;;;24.18;37.21;100280.41;5072662;28;20074;-66
2023/06/01 10:13:22;;;;;;;7.95;4.15;;;;;;;24.21;36.99;100271.88;5072323;28;20063;-67
2023/06/01 10:15:54;;;;;;;9.57;4.60;;;;;;;24.23;36.81;100271.72;5072886;28;20102;-66
2023/06/01 10:18:23;;;;;;;8.68;4.20;;;;;;;24.24;36.91;100265.25;5072362;28;20080;-65
2023/06/01 10:20:52;;;;;;;9.27;4.05;;;;;;;24.26;37.15;100265.91;5072419;28;20045;-66
2023/06/01 10:23:20;;;;;;;7.95;4.18;;;;;;;24.28;37.43;100258.38;5072399;28;20502;-65
2023/06/01 10:26:00;;;;;;;7.07;3.83;;;;;;;24.30;37.62;100255.47;5072211;28;20048;-66
2023/06/01 10:28:31;;;;;;;8.27;4.63;;;;;;;24.34;37.68;100259.59;5072194;28;20119;-65
2023/06/01 10:31:37;;;;;;;7.03;3.92;;;;;;;24.36;37.36;100246.63;5072222;28;20048;-65
2023/06/01 10:34:12;;;;;;;9.48;4.00;;;;;;;24.39;37.29;100244.38;5072229;28;20076;-67
2023/06/01 10:37:18;;;;;;;7.40;4.30;;;;;;;24.44;36.96;100243.84;5072286;28;20044;-67
2023/06/01 10:39:46;;;;;;;9.45;4.50;;;;;;;24.46;36.95;100245.34;5072161;28;20475;-66
2023/06/01 10:42:39;;;;;;;8.07;4.25;;;;;;;24.50;37.22;100240.34;5072249;28;20058;-66
2023/06/01 10:45:29;;;;;;;7.95;4.10;;;;;;;24.54;37.00;100244.44;5072370;28;20044;-66
2023/06/01 10:47:57;;;;;;;9.88;4.20;;;;;;;24.55;36.98;100241.53;5071834;28;20048;-65
2023/06/01 10:50:27;;;;;;;8.38;4.47;;;;;;;24.58;37.18;100236.72;5072057;28;20066;-66
2023/06/01 10:52:57;;;;;;;9.30;4.32;;;;;;;24.60;37.41;100234.66;5072199;28;20135;-65
2023/06/01 10:55:28;;;;;;;7.90;4.05;;;;;;;24.62;37.67;100228.00;5071780;28;20163;-66
2023/06/01 10:58:22;;;;;;;8.35;3.90;;;;;;;24.67;37.55;100225.56;5070590;28;20044;-65
2023/06/01 11:00:52;;;;;;;10.07;4.60;;;;;;;24.72;36.62;100216.84;5071845;28;20053;-66
2023/06/01 11:03:45;;;;;;;8.98;4.63;;;;;;;24.76;36.33;100218.16;5071517;28;20044;-65
2023/06/01 11:06:33;;;;;;;7.50;4.10;;;;;;;24.79;36.53;100218.63;5072019;28;20049;-65
2023/06/01 11:09:05;;;;;;;8.50;4.07;;;;;;;24.84;36.75;100209.91;5071041;28;20049;-66
2023/06/01 11:12:01;;;;;;;7.55;3.97;;;;;;;24.91;37.01;100204.56;5071582;28;20048;-66
2023/06/01 11:14:31;;;;;;;8.32;4.20;;;;;;;24.96;36.97;100197.50;5071459;28;20106;-66
2023/06/01 11:17:29;;;;;;;11.90;4.50;;;;;;;24.98;36.75;100198.16;5071670;28;20048;-66
2023/06/01 11:20:11;;;;;;;7.85;4.18;;;;;;;25.00;36.85;100198.84;5071348;28;20056;-66
2023/06/01 11:22:40;;;;;;;9.35;4.68;;;;;;;25.04;36.51;100194.72;5071466;28;20414;-66
2023/06/01 11:25:12;;;;;;;9.27;4.78;;;;;;;25.06;36.44;100198.09;5071279;28;20132;-66
2023/06/01 11:27:44;;;;;;;7.07;4.53;;;;;;;25.14;36.86;100188.13;5071306;28;20132;-66
2023/06/01 11:30:20;;;;;;;5.95;4.05;;;;;;;25.18;36.87;100183.97;5071370;28;20401;-67
2023/06/01 11:32:52;;;;;;;6.97;4.10;;;;;;;25.22;36.97;100179.84;5071049;28;20051;-66
2023/06/01 11:35:22;;;;;;;8.07;3.97;;;;;;;25.25;36.52;100176.72;5071156;28;20497;-66
2023/06/01 11:37:56;;;;;;;8.45;4.43;;;;;;;25.29;36.39;100169.88;5071112;28;20540;-66
2023/06/01 11:40:28;;;;;;;7.47;4.28;;;;;;;25.28;36.64;100162.69;5071103;28;20044;-66